sensor_id;sensor_type;location;lat;lon;timestamp;pressure;altitude;pressure_sealevel;temperature
73673;BMP280;61972;19.480;-99.240;2024-01-30T00:00:55;77823.03;;;22.32
73673;BMP280;61972;19.480;-99.240;2024-01-30T00:03:21;77828.25;;;22.32
73673;BMP280;61972;19.480;-99.240;2024-01-30T00:05:47;77830.84;;;22.32
73673;BMP280;61972;19.480;-99.240;2024-01-30T00:08:13;77834.59;;;22.33
73673;BMP280;61972;19.480;-99.240;2024-01-30T00:10:39;77834.59;;;22.33
73673;BMP280;61972;19.480;-99.240;2024-01-30T00:13:24;77833.44;;;22.32
73673;BMP280;61972;19.480;-99.240;2024-01-30T00:15:51;77837.19;;;22.33
73673;BMP280;61972;19.480;-99.240;2024-01-30T00:18:17;77839.78;;;22.33
73673;BMP280;61972;19.480;-99.240;2024-01-30T00:20:44;77841.81;;;22.32
73673;BMP280;61972;19.480;-99.240;2024-01-30T00:23:10;77828.78;;;22.32
73673;BMP280;61972;19.480;-99.240;2024-01-30T00:25:36;77838.66;;;22.32
73673;BMP280;61972;19.480;-99.240;2024-01-30T00:28:03;77845.00;;;22.33
73673;BMP280;61972;19.480;-99.240;2024-01-30T00:30:29;77846.47;;;22.32
73673;BMP280;61972;19.480;-99.240;2024-01-30T00:32:58;77845.88;;;22.31
73673;BMP280;61972;19.480;-99.240;2024-01-30T00:35:24;77859.47;;;22.32
73673;BMP280;61972;19.480;-99.240;2024-01-30T00:37:50;77859.47;;;22.32
73673;BMP280;61972;19.480;-99.240;2024-01-30T00:40:16;77867.28;;;22.32
73673;BMP280;61972;19.480;-99.240;2024-01-30T00:42:43;77871.56;;;22.33
73673;BMP280;61972;19.480;-99.240;2024-01-30T00:45:14;77875.09;;;22.32
73673;BMP280;61972;19.480;-99.240;2024-01-30T00:47:41;77875.66;;;22.32
73673;BMP280;61972;19.480;-99.240;2024-01-30T00:50:07;77886.06;;;22.32
73673;BMP280;61972;19.480;-99.240;2024-01-30T00:52:33;77892.75;;;22.31
73673;BMP280;61972;19.480;-99.240;2024-01-30T00:55:00;77894.81;;;22.31
73673;BMP280;61972;19.480;-99.240;2024-01-30T00:57:26;77905.22;;;22.31
73673;BMP280;61972;19.480;-99.240;2024-01-30T00:59:52;77897.41;;;22.31
73673;BMP280;61972;19.480;-99.240;2024-01-30T01:02:18;77901.13;;;22.32
73673;BMP280;61972;19.480;-99.240;2024-01-30T01:04:45;77906.31;;;22.32
73673;BMP280;61972;19.480;-99.240;2024-01-30T01:07:11;77919.72;;;22.30
73673;BMP280;61972;19.480;-99.240;2024-01-30T01:09:37;77919.72;;;22.30
73673;BMP280;61972;19.480;-99.240;2024-01-30T01:12:04;77919.72;;;22.30
73673;BMP280;61972;19.480;-99.240;2024-01-30T01:14:30;77924.91;;;22.30
73673;BMP280;61972;19.480;-99.240;2024-01-30T01:16:56;77926.38;;;22.29
73673;BMP280;61972;19.480;-99.240;2024-01-30T01:19:31;77928.97;;;22.29
73673;BMP280;61972;19.480;-99.240;2024-01-30T01:22:00;77933.63;;;22.28
73673;BMP280;61972;19.480;-99.240;2024-01-30T01:24:30;77938.28;;;22.28
73673;BMP280;61972;19.480;-99.240;2024-01-30T01:27:05;77937.16;;;22.27
73673;BMP280;61972;19.480;-99.240;2024-01-30T01:29:35;77939.75;;;22.27
73673;BMP280;61972;19.480;-99.240;2024-01-30T01:32:03;77936.59;;;22.26
73673;BMP280;61972;19.480;-99.240;2024-01-30T01:34:29;77936.03;;;22.26
73673;BMP280;61972;19.480;-99.240;2024-01-30T01:36:55;77940.69;;;22.25
73673;BMP280;61972;19.480;-99.240;2024-01-30T01:39:22;77942.16;;;22.24
73673;BMP280;61972;19.480;-99.240;2024-01-30T01:41:49;77946.44;;;22.26
73673;BMP280;61972;19.480;-99.240;2024-01-30T01:44:15;77939.56;;;22.24
73673;BMP280;61972;19.480;-99.240;2024-01-30T01:46:42;77947.91;;;22.25
73673;BMP280;61972;19.480;-99.240;2024-01-30T01:49:08;77955.72;;;22.25
73673;BMP280;61972;19.480;-99.240;2024-01-30T01:51:35;77955.72;;;22.25
73673;BMP280;61972;19.480;-99.240;2024-01-30T01:54:03;77953.50;;;22.23
73673;BMP280;61972;19.480;-99.240;2024-01-30T01:56:31;77955.53;;;22.22
73673;BMP280;61972;19.480;-99.240;2024-01-30T01:59:00;77967.97;;;22.22
73673;BMP280;61972;19.480;-99.240;2024-01-30T02:01:31;77973.19;;;22.22
73673;BMP280;61972;19.480;-99.240;2024-01-30T02:03:59;77972.06;;;22.21
73673;BMP280;61972;19.480;-99.240;2024-01-30T02:06:26;77979.88;;;22.21
73673;BMP280;61972;19.480;-99.240;2024-01-30T02:08:53;77974.09;;;22.20
73673;BMP280;61972;19.480;-99.240;2024-01-30T02:11:20;77979.88;;;22.21
73673;BMP280;61972;19.480;-99.240;2024-01-30T02:13:46;77986.53;;;22.19
73673;BMP280;61972;19.480;-99.240;2024-01-30T02:16:12;77981.34;;;22.19
73673;BMP280;61972;19.480;-99.240;2024-01-30T02:18:38;77981.34;;;22.19
73673;BMP280;61972;19.480;-99.240;2024-01-30T02:21:09;77991.75;;;22.19
73673;BMP280;61972;19.480;-99.240;2024-01-30T02:23:35;77996.38;;;22.19
73673;BMP280;61972;19.480;-99.240;2024-01-30T02:26:19;77992.88;;;22.21
73673;BMP280;61972;19.480;-99.240;2024-01-30T02:29:10;77997.50;;;22.20
73673;BMP280;61972;19.480;-99.240;2024-01-30T02:31:37;78003.28;;;22.21
73673;BMP280;61972;19.480;-99.240;2024-01-30T02:34:03;78004.41;;;22.22
73673;BMP280;61972;19.480;-99.240;2024-01-30T02:36:29;77999.41;;;22.24
73673;BMP280;61972;19.480;-99.240;2024-01-30T02:39:00;77997.03;;;22.27
73673;BMP280;61972;19.480;-99.240;2024-01-30T02:41:36;77993.72;;;22.31
73673;BMP280;61972;19.480;-99.240;2024-01-30T02:44:04;77999.31;;;22.36
73673;BMP280;61972;19.480;-99.240;2024-01-30T02:46:30;78002.31;;;22.41
73673;BMP280;61972;19.480;-99.240;2024-01-30T02:48:56;78007.59;;;22.48
73673;BMP280;61972;19.480;-99.240;2024-01-30T02:51:22;78016.94;;;22.54
73673;BMP280;61972;19.480;-99.240;2024-01-30T02:53:49;78015.88;;;22.61
73673;BMP280;61972;19.480;-99.240;2024-01-30T02:56:15;78015.00;;;22.69
73673;BMP280;61972;19.480;-99.240;2024-01-30T02:58:41;78018.78;;;22.78
73673;BMP280;61972;19.480;-99.240;2024-01-30T03:01:08;78021.41;;;22.85
73673;BMP280;61972;19.480;-99.240;2024-01-30T03:03:34;78024.63;;;22.92
73673;BMP280;61972;19.480;-99.240;2024-01-30T03:06:02;78026.53;;;22.97
73673;BMP280;61972;19.480;-99.240;2024-01-30T03:08:28;78026.91;;;23.02
73673;BMP280;61972;19.480;-99.240;2024-01-30T03:10:54;78028.78;;;23.06
73673;BMP280;61972;19.480;-99.240;2024-01-30T03:13:21;78032.75;;;23.09
73673;BMP280;61972;19.480;-99.240;2024-01-30T03:15:49;78032.00;;;23.14
73673;BMP280;61972;19.480;-99.240;2024-01-30T03:18:15;78024.41;;;23.16
73673;BMP280;61972;19.480;-99.240;2024-01-30T03:20:41;78011.00;;;23.18
73673;BMP280;61972;19.480;-99.240;2024-01-30T03:23:07;78010.66;;;23.20
73673;BMP280;61972;19.480;-99.240;2024-01-30T03:25:33;78014.38;;;23.21
73673;BMP280;61972;19.480;-99.240;2024-01-30T03:27:59;78021.84;;;23.23
73673;BMP280;61972;19.480;-99.240;2024-01-30T03:30:26;78018.28;;;23.25
73673;BMP280;61972;19.480;-99.240;2024-01-30T03:32:52;78024.63;;;23.26
73673;BMP280;61972;19.480;-99.240;2024-01-30T03:35:19;78025.19;;;23.26
73673;BMP280;61972;19.480;-99.240;2024-01-30T03:37:45;78030.97;;;23.27
73673;BMP280;61972;19.480;-99.240;2024-01-30T03:40:11;78033.22;;;23.29
73673;BMP280;61972;19.480;-99.240;2024-01-30T03:42:41;78038.97;;;23.30
73673;BMP280;61972;19.480;-99.240;2024-01-30T03:45:07;78038.06;;;23.31
73673;BMP280;61972;19.480;-99.240;2024-01-30T03:47:33;78033.41;;;23.32
73673;BMP280;61972;19.480;-99.240;2024-01-30T03:49:59;78031.91;;;23.33
73673;BMP280;61972;19.480;-99.240;2024-01-30T03:52:25;78031.38;;;23.32
73673;BMP280;61972;19.480;-99.240;2024-01-30T03:54:52;78030.44;;;23.34
73673;BMP280;61972;19.480;-99.240;2024-01-30T03:57:18;78033.03;;;23.34
73673;BMP280;61972;19.480;-99.240;2024-01-30T03:59:47;78034.19;;;23.35
73673;BMP280;61972;19.480;-99.240;2024-01-30T04:02:13;78045.19;;;23.35
73673;BMP280;61972;19.480;-99.240;2024-01-30T04:04:39;78047.22;;;23.35
73673;BMP280;61972;19.480;-99.240;2024-01-30T04:07:06;78043.13;;;23.36
73673;BMP280;61972;19.480;-99.240;2024-01-30T04:12:21;78035.84;;;23.36
73673;BMP280;61972;19.480;-99.240;2024-01-30T04:14:47;78034.38;;;23.37
73673;BMP280;61972;19.480;-99.240;2024-01-30T04:17:13;78036.63;;;23.39
73673;BMP280;61972;19.480;-99.240;2024-01-30T04:19:40;78029.91;;;23.40
73673;BMP280;61972;19.480;-99.240;2024-01-30T04:22:06;78029.38;;;23.40
73673;BMP280;61972;19.480;-99.240;2024-01-30T04:24:32;78037.72;;;23.40
73673;BMP280;61972;19.480;-99.240;2024-01-30T04:26:58;78038.31;;;23.41
73673;BMP280;61972;19.480;-99.240;2024-01-30T04:29:24;78035.13;;;23.40
73673;BMP280;61972;19.480;-99.240;2024-01-30T04:31:50;78034.59;;;23.40
73673;BMP280;61972;19.480;-99.240;2024-01-30T04:34:17;78034.00;;;23.39
73673;BMP280;61972;19.480;-99.240;2024-01-30T04:36:44;78039.22;;;23.39
73673;BMP280;61972;19.480;-99.240;2024-01-30T04:39:13;78049.09;;;23.39
73673;BMP280;61972;19.480;-99.240;2024-01-30T04:41:39;78048.53;;;23.38
73673;BMP280;61972;19.480;-99.240;2024-01-30T04:44:05;78062.50;;;23.37
73673;BMP280;61972;19.480;-99.240;2024-01-30T04:46:31;78057.81;;;23.37
73673;BMP280;61972;19.480;-99.240;2024-01-30T04:48:58;78057.28;;;23.37
73673;BMP280;61972;19.480;-99.240;2024-01-30T04:51:27;78057.28;;;23.37
73673;BMP280;61972;19.480;-99.240;2024-01-30T04:53:56;78052.63;;;23.37
73673;BMP280;61972;19.480;-99.240;2024-01-30T04:56:22;78047.97;;;23.38
73673;BMP280;61972;19.480;-99.240;2024-01-30T04:58:48;78043.88;;;23.39
73673;BMP280;61972;19.480;-99.240;2024-01-30T05:01:15;78043.53;;;23.41
73673;BMP280;61972;19.480;-99.240;2024-01-30T05:03:42;78043.72;;;23.43
73673;BMP280;61972;19.480;-99.240;2024-01-30T05:06:08;78034.97;;;23.45
73673;BMP280;61972;19.480;-99.240;2024-01-30T05:08:34;78041.50;;;23.49
73673;BMP280;61972;19.480;-99.240;2024-01-30T05:11:06;78042.81;;;23.52
73673;BMP280;61972;19.480;-99.240;2024-01-30T05:13:33;78042.66;;;23.57
73673;BMP280;61972;19.480;-99.240;2024-01-30T05:15:59;78039.88;;;23.61
73673;BMP280;61972;19.480;-99.240;2024-01-30T05:18:25;78032.44;;;23.67
73673;BMP280;61972;19.480;-99.240;2024-01-30T05:20:57;78031.72;;;23.71
73673;BMP280;61972;19.480;-99.240;2024-01-30T05:23:23;78032.13;;;23.76
73673;BMP280;61972;19.480;-99.240;2024-01-30T05:25:49;78037.75;;;23.81
73673;BMP280;61972;19.480;-99.240;2024-01-30T05:28:15;78027.13;;;23.86
73673;BMP280;61972;19.480;-99.240;2024-01-30T05:30:41;78018.34;;;23.87
73673;BMP280;61972;19.480;-99.240;2024-01-30T05:33:07;78018.34;;;23.87
73673;BMP280;61972;19.480;-99.240;2024-01-30T05:35:33;78016.13;;;23.85
73673;BMP280;61972;19.480;-99.240;2024-01-30T05:37:59;78006.78;;;23.79
73673;BMP280;61972;19.480;-99.240;2024-01-30T05:40:26;78007.16;;;23.77
73673;BMP280;61972;19.480;-99.240;2024-01-30T05:42:53;78011.97;;;23.72
73673;BMP280;61972;19.480;-99.240;2024-01-30T05:45:19;78016.25;;;23.66
73673;BMP280;61972;19.480;-99.240;2024-01-30T05:47:45;78012.31;;;23.62
73673;BMP280;61972;19.480;-99.240;2024-01-30T05:50:11;77997.75;;;23.56
73673;BMP280;61972;19.480;-99.240;2024-01-30T05:52:37;78000.00;;;23.51
73673;BMP280;61972;19.480;-99.240;2024-01-30T05:55:04;77999.59;;;23.46
73673;BMP280;61972;19.480;-99.240;2024-01-30T05:57:31;78004.97;;;23.41
73673;BMP280;61972;19.480;-99.240;2024-01-30T05:59:57;78009.22;;;23.36
73673;BMP280;61972;19.480;-99.240;2024-01-30T06:02:23;77995.78;;;23.31
73673;BMP280;61972;19.480;-99.240;2024-01-30T06:04:49;77998.00;;;23.25
73673;BMP280;61972;19.480;-99.240;2024-01-30T06:07:16;77995.00;;;23.20
73673;BMP280;61972;19.480;-99.240;2024-01-30T06:09:43;78000.72;;;23.14
73673;BMP280;61972;19.480;-99.240;2024-01-30T06:12:09;77997.94;;;23.11
73673;BMP280;61972;19.480;-99.240;2024-01-30T06:14:37;77997.00;;;23.05
73673;BMP280;61972;19.480;-99.240;2024-01-30T06:17:04;77991.94;;;23.01
73673;BMP280;61972;19.480;-99.240;2024-01-30T06:19:30;77986.31;;;22.96
73673;BMP280;61972;19.480;-99.240;2024-01-30T06:21:57;77982.94;;;22.92
73673;BMP280;61972;19.480;-99.240;2024-01-30T06:24:23;77981.97;;;22.87
73673;BMP280;61972;19.480;-99.240;2024-01-30T06:26:49;77989.03;;;22.84
73673;BMP280;61972;19.480;-99.240;2024-01-30T06:29:15;77976.16;;;22.79
73673;BMP280;61972;19.480;-99.240;2024-01-30T06:31:42;77985.25;;;22.76
73673;BMP280;61972;19.480;-99.240;2024-01-30T06:34:09;77982.47;;;22.73
73673;BMP280;61972;19.480;-99.240;2024-01-30T06:36:35;77986.91;;;22.70
73673;BMP280;61972;19.480;-99.240;2024-01-30T06:39:02;77979.81;;;22.66
73673;BMP280;61972;19.480;-99.240;2024-01-30T06:41:29;77982.56;;;22.61
73673;BMP280;61972;19.480;-99.240;2024-01-30T06:43:56;77987.59;;;22.59
73673;BMP280;61972;19.480;-99.240;2024-01-30T06:46:22;77987.94;;;22.57
73673;BMP280;61972;19.480;-99.240;2024-01-30T06:48:48;77986.63;;;22.53
73673;BMP280;61972;19.480;-99.240;2024-01-30T06:51:14;77983.25;;;22.50
73673;BMP280;61972;19.480;-99.240;2024-01-30T06:53:40;77988.25;;;22.47
73673;BMP280;61972;19.480;-99.240;2024-01-30T06:56:06;77984.88;;;22.44
73673;BMP280;61972;19.480;-99.240;2024-01-30T06:58:33;77985.25;;;22.42
73673;BMP280;61972;19.480;-99.240;2024-01-30T07:00:59;77982.97;;;22.40
73673;BMP280;61972;19.480;-99.240;2024-01-30T07:03:25;77985.94;;;22.38
73673;BMP280;61972;19.480;-99.240;2024-01-30T07:05:52;77982.59;;;22.35
73673;BMP280;61972;19.480;-99.240;2024-01-30T07:08:18;77972.53;;;22.33
73673;BMP280;61972;19.480;-99.240;2024-01-30T07:10:48;77971.41;;;22.32
73673;BMP280;61972;19.480;-99.240;2024-01-30T07:13:14;77960.22;;;22.29
73673;BMP280;61972;19.480;-99.240;2024-01-30T07:15:42;77955.38;;;22.27
73673;BMP280;61972;19.480;-99.240;2024-01-30T07:18:08;77960.38;;;22.24
73673;BMP280;61972;19.480;-99.240;2024-01-30T07:20:38;77952.94;;;22.22
73673;BMP280;61972;19.480;-99.240;2024-01-30T07:23:08;77945.47;;;22.20
73673;BMP280;61972;19.480;-99.240;2024-01-30T07:25:37;77954.22;;;22.18
73673;BMP280;61972;19.480;-99.240;2024-01-30T07:28:03;77950.09;;;22.19
73673;BMP280;61972;19.480;-99.240;2024-01-30T07:30:29;77945.63;;;22.15
73673;BMP280;61972;19.480;-99.240;2024-01-30T07:32:55;77949.72;;;22.14
73673;BMP280;61972;19.480;-99.240;2024-01-30T07:35:21;77947.44;;;22.12
73673;BMP280;61972;19.480;-99.240;2024-01-30T07:37:47;77948.91;;;22.11
73673;BMP280;61972;19.480;-99.240;2024-01-30T07:40:14;77954.50;;;22.09
73673;BMP280;61972;19.480;-99.240;2024-01-30T07:42:43;77958.59;;;22.08
73673;BMP280;61972;19.480;-99.240;2024-01-30T07:45:09;77953.16;;;22.06
73673;BMP280;61972;19.480;-99.240;2024-01-30T07:47:35;77949.44;;;22.05
73673;BMP280;61972;19.480;-99.240;2024-01-30T07:50:01;77950.34;;;22.03
73673;BMP280;61972;19.480;-99.240;2024-01-30T07:52:28;77947.22;;;22.03
73673;BMP280;61972;19.480;-99.240;2024-01-30T07:54:54;77950.72;;;22.01
73673;BMP280;61972;19.480;-99.240;2024-01-30T07:57:21;77951.06;;;21.99
73673;BMP280;61972;19.480;-99.240;2024-01-30T07:59:47;77949.94;;;21.98
73673;BMP280;61972;19.480;-99.240;2024-01-30T08:02:13;77945.66;;;21.96
73673;BMP280;61972;19.480;-99.240;2024-01-30T08:04:39;77946.56;;;21.95
73673;BMP280;61972;19.480;-99.240;2024-01-30T08:07:06;77952.13;;;21.93
73673;BMP280;61972;19.480;-99.240;2024-01-30T08:09:32;77954.16;;;21.92
73673;BMP280;61972;19.480;-99.240;2024-01-30T08:11:58;77967.56;;;21.90
73673;BMP280;61972;19.480;-99.240;2024-01-30T08:14:24;77963.25;;;21.89
73673;BMP280;61972;19.480;-99.240;2024-01-30T08:16:51;77956.91;;;21.88
73673;BMP280;61972;19.480;-99.240;2024-01-30T08:19:18;77955.78;;;21.87
73673;BMP280;61972;19.480;-99.240;2024-01-30T08:21:44;77963.94;;;21.84
73673;BMP280;61972;19.480;-99.240;2024-01-30T08:24:11;77953.53;;;21.84
73673;BMP280;61972;19.480;-99.240;2024-01-30T08:26:37;77945.53;;;21.82
73673;BMP280;61972;19.480;-99.240;2024-01-30T08:29:03;77940.34;;;21.82
73673;BMP280;61972;19.480;-99.240;2024-01-30T08:31:29;77943.84;;;21.80
73673;BMP280;61972;19.480;-99.240;2024-01-30T08:33:55;77946.81;;;21.78
73673;BMP280;61972;19.480;-99.240;2024-01-30T08:36:21;77947.16;;;21.76
73673;BMP280;61972;19.480;-99.240;2024-01-30T08:38:48;77935.63;;;21.75
73673;BMP280;61972;19.480;-99.240;2024-01-30T08:41:14;77940.28;;;21.75
73673;BMP280;61972;19.480;-99.240;2024-01-30T08:43:40;77941.19;;;21.73
73673;BMP280;61972;19.480;-99.240;2024-01-30T08:46:06;77934.84;;;21.72
73673;BMP280;61972;19.480;-99.240;2024-01-30T08:48:32;77925.94;;;21.71
73673;BMP280;61972;19.480;-99.240;2024-01-30T08:50:58;77918.16;;;21.71
73673;BMP280;61972;19.480;-99.240;2024-01-30T08:53:25;77921.66;;;21.70
73673;BMP280;61972;19.480;-99.240;2024-01-30T08:55:51;77915.34;;;21.69
73673;BMP280;61972;19.480;-99.240;2024-01-30T08:58:17;77914.19;;;21.68
73673;BMP280;61972;19.480;-99.240;2024-01-30T09:00:45;77909.56;;;21.68
73673;BMP280;61972;19.480;-99.240;2024-01-30T09:03:11;77919.41;;;21.68
73673;BMP280;61972;19.480;-99.240;2024-01-30T09:05:37;77915.13;;;21.66
73673;BMP280;61972;19.480;-99.240;2024-01-30T09:08:03;77920.34;;;21.66
73673;BMP280;61972;19.480;-99.240;2024-01-30T09:10:29;77917.16;;;21.65
73673;BMP280;61972;19.480;-99.240;2024-01-30T09:12:55;77913.47;;;21.64
73673;BMP280;61972;19.480;-99.240;2024-01-30T09:15:21;77911.19;;;21.62
73673;BMP280;61972;19.480;-99.240;2024-01-30T09:17:48;77909.16;;;21.63
73673;BMP280;61972;19.480;-99.240;2024-01-30T09:20:14;77913.25;;;21.62
73673;BMP280;61972;19.480;-99.240;2024-01-30T09:22:40;77911.56;;;21.60
73673;BMP280;61972;19.480;-99.240;2024-01-30T09:25:06;77916.19;;;21.60
73673;BMP280;61972;19.480;-99.240;2024-01-30T09:27:32;77910.44;;;21.59
73673;BMP280;61972;19.480;-99.240;2024-01-30T09:29:59;77904.09;;;21.58
73673;BMP280;61972;19.480;-99.240;2024-01-30T09:32:25;77907.63;;;21.57
73673;BMP280;61972;19.480;-99.240;2024-01-30T09:34:51;77904.47;;;21.56
73673;BMP280;61972;19.480;-99.240;2024-01-30T09:37:17;77900.72;;;21.55
73673;BMP280;61972;19.480;-99.240;2024-01-30T09:39:43;77899.06;;;21.54
73673;BMP280;61972;19.480;-99.240;2024-01-30T09:42:35;77892.72;;;21.53
73673;BMP280;61972;19.480;-99.240;2024-01-30T09:45:03;77886.97;;;21.52
73673;BMP280;61972;19.480;-99.240;2024-01-30T09:47:41;77884.16;;;21.50
73673;BMP280;61972;19.480;-99.240;2024-01-30T09:50:12;77892.53;;;21.50
73673;BMP280;61972;19.480;-99.240;2024-01-30T09:52:39;77892.88;;;21.48
73673;BMP280;61972;19.480;-99.240;2024-01-30T09:55:07;77896.38;;;21.46
73673;BMP280;61972;19.480;-99.240;2024-01-30T09:57:34;77906.22;;;21.46
73673;BMP280;61972;19.480;-99.240;2024-01-30T10:00:01;77904.56;;;21.44
73673;BMP280;61972;19.480;-99.240;2024-01-30T10:02:28;77898.22;;;21.43
73673;BMP280;61972;19.480;-99.240;2024-01-30T10:04:54;77888.72;;;21.42
73673;BMP280;61972;19.480;-99.240;2024-01-30T10:07:20;77887.25;;;21.43
73673;BMP280;61972;19.480;-99.240;2024-01-30T10:09:47;77891.91;;;21.42
73673;BMP280;61972;19.480;-99.240;2024-01-30T10:12:15;77894.50;;;21.42
73673;BMP280;61972;19.480;-99.240;2024-01-30T10:14:43;77890.22;;;21.41
73673;BMP280;61972;19.480;-99.240;2024-01-30T10:17:09;77881.28;;;21.40
73673;BMP280;61972;19.480;-99.240;2024-01-30T10:19:36;77873.50;;;21.40
73673;BMP280;61972;19.480;-99.240;2024-01-30T10:22:12;77871.81;;;21.38
73673;BMP280;61972;19.480;-99.240;2024-01-30T10:24:38;77880.16;;;21.39
73673;BMP280;61972;19.480;-99.240;2024-01-30T10:27:06;77876.44;;;21.38
73673;BMP280;61972;19.480;-99.240;2024-01-30T10:29:32;77879.59;;;21.38
73673;BMP280;61972;19.480;-99.240;2024-01-30T10:34:25;77874.75;;;21.36
73673;BMP280;61972;19.480;-99.240;2024-01-30T10:39:30;77875.09;;;21.34
73673;BMP280;61972;19.480;-99.240;2024-01-30T10:42:03;77871.38;;;21.33
73673;BMP280;61972;19.480;-99.240;2024-01-30T10:44:37;77867.66;;;21.32
73673;BMP280;61972;19.480;-99.240;2024-01-30T10:47:08;77861.38;;;21.31
73673;BMP280;61972;19.480;-99.240;2024-01-30T10:49:40;77858.75;;;21.31
73673;BMP280;61972;19.480;-99.240;2024-01-30T10:52:09;77869.16;;;21.31
73673;BMP280;61972;19.480;-99.240;2024-01-30T10:54:36;77866.34;;;21.28
73673;BMP280;61972;19.480;-99.240;2024-01-30T10:57:03;77860.59;;;21.28
73673;BMP280;61972;19.480;-99.240;2024-01-30T10:59:31;77865.22;;;21.27
73673;BMP280;61972;19.480;-99.240;2024-01-30T11:01:59;77864.09;;;21.26
73673;BMP280;61972;19.480;-99.240;2024-01-30T11:04:25;77874.47;;;21.26
73673;BMP280;61972;19.480;-99.240;2024-01-30T11:06:51;77885.25;;;21.24
73673;BMP280;61972;19.480;-99.240;2024-01-30T11:09:18;77885.25;;;21.24
73673;BMP280;61972;19.480;-99.240;2024-01-30T11:11:55;77891.91;;;21.23
73673;BMP280;61972;19.480;-99.240;2024-01-30T11:14:26;77886.13;;;21.23
73673;BMP280;61972;19.480;-99.240;2024-01-30T11:16:52;77878.69;;;21.21
73673;BMP280;61972;19.480;-99.240;2024-01-30T11:19:31;77882.78;;;21.20
73673;BMP280;61972;19.480;-99.240;2024-01-30T11:21:57;77878.50;;;21.18
73673;BMP280;61972;19.480;-99.240;2024-01-30T11:24:23;77888.31;;;21.18
73673;BMP280;61972;19.480;-99.240;2024-01-30T11:26:56;77894.44;;;21.16
73673;BMP280;61972;19.480;-99.240;2024-01-30T11:29:29;77887.56;;;21.15
73673;BMP280;61972;19.480;-99.240;2024-01-30T11:31:57;77886.44;;;21.14
73673;BMP280;61972;19.480;-99.240;2024-01-30T11:34:24;77883.25;;;21.13
73673;BMP280;61972;19.480;-99.240;2024-01-30T11:36:58;77879.00;;;21.11
73673;BMP280;61972;19.480;-99.240;2024-01-30T11:39:31;77876.72;;;21.09
73673;BMP280;61972;19.480;-99.240;2024-01-30T11:41:58;77888.59;;;21.08
73673;BMP280;61972;19.480;-99.240;2024-01-30T11:44:25;77895.81;;;21.08
73673;BMP280;61972;19.480;-99.240;2024-01-30T11:46:52;77904.53;;;21.06
73673;BMP280;61972;19.480;-99.240;2024-01-30T11:49:19;77903.97;;;21.06
73673;BMP280;61972;19.480;-99.240;2024-01-30T11:51:48;77897.66;;;21.05
73673;BMP280;61972;19.480;-99.240;2024-01-30T11:54:17;77901.19;;;21.03
73673;BMP280;61972;19.480;-99.240;2024-01-30T11:56:44;77898.00;;;21.03
73673;BMP280;61972;19.480;-99.240;2024-01-30T11:59:11;77909.31;;;21.01
73673;BMP280;61972;19.480;-99.240;2024-01-30T12:01:37;77917.44;;;20.99
73673;BMP280;61972;19.480;-99.240;2024-01-30T12:04:04;77916.31;;;20.98
73673;BMP280;61972;19.480;-99.240;2024-01-30T12:06:34;77915.19;;;20.97
73673;BMP280;61972;19.480;-99.240;2024-01-30T12:09:02;77908.88;;;20.96
73673;BMP280;61972;19.480;-99.240;2024-01-30T12:11:43;77906.28;;;20.96
73673;BMP280;61972;19.480;-99.240;2024-01-30T12:14:09;77897.38;;;20.95
73673;BMP280;61972;19.480;-99.240;2024-01-30T12:16:35;77901.44;;;20.94
73673;BMP280;61972;19.480;-99.240;2024-01-30T12:19:02;77897.38;;;20.95
73673;BMP280;61972;19.480;-99.240;2024-01-30T12:21:29;77904.59;;;20.94
73673;BMP280;61972;19.480;-99.240;2024-01-30T12:23:57;77911.25;;;20.93
73673;BMP280;61972;19.480;-99.240;2024-01-30T12:26:24;77915.88;;;20.93
73673;BMP280;61972;19.480;-99.240;2024-01-30T12:28:54;77914.19;;;20.91
73673;BMP280;61972;19.480;-99.240;2024-01-30T12:31:28;77922.91;;;20.90
73673;BMP280;61972;19.480;-99.240;2024-01-30T12:33:54;77927.53;;;20.89
73673;BMP280;61972;19.480;-99.240;2024-01-30T12:36:21;77929.56;;;20.89
73673;BMP280;61972;19.480;-99.240;2024-01-30T12:38:48;77930.47;;;20.87
73673;BMP280;61972;19.480;-99.240;2024-01-30T12:41:14;77938.63;;;20.85
73673;BMP280;61972;19.480;-99.240;2024-01-30T12:43:41;77939.53;;;20.84
73673;BMP280;61972;19.480;-99.240;2024-01-30T12:46:07;77946.19;;;20.83
73673;BMP280;61972;19.480;-99.240;2024-01-30T12:48:34;77943.94;;;20.81
73673;BMP280;61972;19.480;-99.240;2024-01-30T12:51:00;77943.38;;;20.80
73673;BMP280;61972;19.480;-99.240;2024-01-30T12:53:26;77948.91;;;20.78
73673;BMP280;61972;19.480;-99.240;2024-01-30T12:55:53;77950.38;;;20.77
73673;BMP280;61972;19.480;-99.240;2024-01-30T12:58:20;77943.50;;;20.75
73673;BMP280;61972;19.480;-99.240;2024-01-30T13:00:46;77943.50;;;20.75
73673;BMP280;61972;19.480;-99.240;2024-01-30T13:03:13;77944.97;;;20.74
73673;BMP280;61972;19.480;-99.240;2024-01-30T13:05:39;77946.47;;;20.73
73673;BMP280;61972;19.480;-99.240;2024-01-30T13:08:05;77953.13;;;20.72
73673;BMP280;61972;19.480;-99.240;2024-01-30T13:10:31;77954.56;;;20.71
73673;BMP280;61972;19.480;-99.240;2024-01-30T13:12:57;77955.50;;;20.70
73673;BMP280;61972;19.480;-99.240;2024-01-30T13:15:24;77954.94;;;20.69
73673;BMP280;61972;19.480;-99.240;2024-01-30T13:17:50;77959.00;;;20.68
73673;BMP280;61972;19.480;-99.240;2024-01-30T13:20:16;77957.31;;;20.67
73673;BMP280;61972;19.480;-99.240;2024-01-30T13:22:44;77961.38;;;20.66
73673;BMP280;61972;19.480;-99.240;2024-01-30T13:25:13;77961.72;;;20.64
73673;BMP280;61972;19.480;-99.240;2024-01-30T13:27:39;77966.34;;;20.63
73673;BMP280;61972;19.480;-99.240;2024-01-30T13:30:07;77964.09;;;20.61
73673;BMP280;61972;19.480;-99.240;2024-01-30T13:32:36;77968.16;;;20.60
73673;BMP280;61972;19.480;-99.240;2024-01-30T13:35:03;77972.78;;;20.59
73673;BMP280;61972;19.480;-99.240;2024-01-30T13:37:29;77971.66;;;20.58
73673;BMP280;61972;19.480;-99.240;2024-01-30T13:39:55;77974.03;;;20.56
73673;BMP280;61972;19.480;-99.240;2024-01-30T13:42:22;77976.63;;;20.56
73673;BMP280;61972;19.480;-99.240;2024-01-30T13:44:49;77981.81;;;20.56
73673;BMP280;61972;19.480;-99.240;2024-01-30T13:47:16;77980.69;;;20.55
73673;BMP280;61972;19.480;-99.240;2024-01-30T13:49:42;77987.34;;;20.54
73673;BMP280;61972;19.480;-99.240;2024-01-30T13:52:08;77983.63;;;20.53